Time;durP1;ratioP1;P1;durP2;ratioP2;P2;SDS_P1;SDS_P2;PMS_P1;PMS_P2;Temp;Humidity;BMP_temperature;BMP_pressure;BME280_temperature;BME280_humidity;BME280_pressure;Samples;Min_cycle;Max_cycle;Signal;HPM_P1;HPM_P2
2023/06/17 00:01:43;;;;;;;11.93;5.10;;;;;;;14.71;100.00;100850.63;5154921;27;20483;-72
2023/06/17 00:04:10;;;;;;;11.20;4.80;;;;;;;14.73;100.00;100846.44;5154907;27;20448;-70
2023/06/17 00:06:36;;;;;;;9.70;4.53;;;;;;;14.71;100.00;100848.69;5154605;27;20437;-72
2023/06/17 00:09:03;;;;;;;9.10;4.40;;;;;;;14.76;100.00;100839.53;5154563;27;20469;-71
2023/06/17 00:11:31;;;;;;;9.20;3.90;;;;;;;14.71;100.00;100837.78;5154846;27;20478;-71
2023/06/17 00:14:00;;;;;;;11.73;4.17;;;;;;;14.62;100.00;100834.25;5154661;27;20536;-71
2023/06/17 00:16:27;;;;;;;12.40;4.87;;;;;;;14.59;100.00;100834.91;5154752;27;20868;-71
2023/06/17 00:18:53;;;;;;;8.53;3.93;;;;;;;14.56;100.00;100824.63;5154796;27;20480;-71
2023/06/17 00:21:20;;;;;;;12.93;5.03;;;;;;;14.57;100.00;100832.50;5155027;27;20485;-71
2023/06/17 00:23:47;;;;;;;9.57;4.37;;;;;;;14.59;100.00;100835.69;5154795;27;20490;-71
2023/06/17 00:26:13;;;;;;;9.50;3.87;;;;;;;14.69;100.00;100825.56;5154438;27;20467;-71
2023/06/17 00:28:41;;;;;;;9.00;4.60;;;;;;;14.72;100.00;100825.75;5154745;27;20488;-71
2023/06/17 00:31:08;;;;;;;12.00;5.13;;;;;;;14.62;100.00;100826.09;5154447;27;20516;-71
2023/06/17 00:33:34;;;;;;;9.70;4.80;;;;;;;14.60;100.00;100823.66;5154398;27;20438;-71
2023/06/17 00:36:01;;;;;;;10.47;4.97;;;;;;;14.60;100.00;100822.84;5154374;27;20458;-71
2023/06/17 00:38:27;;;;;;;9.33;4.47;;;;;;;14.67;100.00;100814.22;5154728;27;20524;-71
2023/06/17 00:40:54;;;;;;;13.13;4.63;;;;;;;14.71;100.00;100809.72;5154247;27;20512;-71
2023/06/17 00:43:21;;;;;;;10.67;3.83;;;;;;;14.72;100.00;100811.31;5154515;27;20532;-71
2023/06/17 00:45:49;;;;;;;10.00;4.60;;;;;;;14.79;100.00;100804.25;5154501;27;20831;-71
2023/06/17 00:48:16;;;;;;;10.67;4.73;;;;;;;14.69;100.00;100803.75;5154415;27;20434;-71
2023/06/17 00:50:45;;;;;;;12.30;5.33;;;;;;;14.66;100.00;100804.44;5154240;27;20475;-71
2023/06/17 00:53:12;;;;;;;10.40;5.33;;;;;;;14.68;100.00;100802.97;5154462;27;20453;-70
2023/06/17 00:55:39;;;;;;;12.30;6.30;;;;;;;14.69;100.00;100806.50;5154113;27;21044;-70
2023/06/17 00:58:07;;;;;;;9.40;4.00;;;;;;;14.76;100.00;100815.78;5154482;27;20484;-71
2023/06/17 01:00:33;;;;;;;11.20;4.80;;;;;;;14.76;100.00;100821.25;5154055;27;20923;-70
2023/06/17 01:03:02;;;;;;;11.23;5.20;;;;;;;14.77;100.00;100824.78;5157599;27;20433;-70
2023/06/17 01:05:29;;;;;;;11.77;4.93;;;;;;;14.78;100.00;100824.44;5157931;27;20998;-71
2023/06/17 01:08:09;;;;;;;10.60;5.00;;;;;;;14.85;100.00;100822.03;5158370;27;20528;-71
2023/06/17 01:10:41;;;;;;;10.87;4.10;;;;;;;14.84;100.00;100817.72;5158283;27;20503;-70
2023/06/17 01:13:08;;;;;;;11.77;4.77;;;;;;;14.75;100.00;100819.66;5158112;27;20855;-70
2023/06/17 01:15:35;;;;;;;15.93;4.40;;;;;;;14.79;100.00;100820.59;5157799;27;20464;-71
2023/06/17 01:18:07;;;;;;;8.60;3.97;;;;;;;14.80;100.00;100818.69;5158285;27;20528;-70
2023/06/17 01:20:35;;;;;;;14.53;5.07;;;;;;;14.74;100.00;100823.50;5157786;27;20931;-70
2023/06/17 01:23:05;;;;;;;11.23;4.97;;;;;;;14.70;100.00;100817.09;5158092;27;20436;-71
2023/06/17 01:25:33;;;;;;;14.80;5.33;;;;;;;14.69;100.00;100825.56;5157791;27;20465;-70
2023/06/17 01:28:13;;;;;;;12.53;5.07;;;;;;;14.69;100.00;100820.13;5157965;27;20521;-73
2023/06/17 01:30:40;;;;;;;10.20;4.63;;;;;;;14.72;100.00;100823.00;5157867;27;20432;-69
2023/06/17 01:33:07;;;;;;;11.70;4.20;;;;;;;14.84;100.00;100825.09;5157454;27;20469;-71
2023/06/17 01:35:35;;;;;;;10.03;4.80;;;;;;;14.84;100.00;100828.63;5157702;27;20485;-72
2023/06/17 01:38:08;;;;;;;11.60;5.10;;;;;;;14.85;100.00;100830.22;5157478;27;20951;-72
2023/06/17 01:40:39;;;;;;;11.57;3.87;;;;;;;14.84;100.00;100825.88;5157670;27;20466;-72
2023/06/17 01:43:07;;;;;;;9.63;4.73;;;;;;;14.82;100.00;100817.22;5157311;27;20576;-71
2023/06/17 01:45:34;;;;;;;13.27;5.10;;;;;;;14.82;100.00;100814.50;5157154;27;20544;-72
2023/06/17 01:48:01;;;;;;;12.07;4.73;;;;;;;14.79;100.00;100817.09;5157560;27;20978;-72
2023/06/17 01:50:28;;;;;;;9.37;4.30;;;;;;;14.80;100.00;100813.22;5157112;27;20541;-72
2023/06/17 01:52:55;;;;;;;11.17;4.60;;;;;;;14.86;100.00;100811.91;5157090;27;20472;-71
2023/06/17 01:55:21;;;;;;;10.33;5.20;;;;;;;14.81;100.00;100815.63;5157244;27;20458;-72
2023/06/17 01:57:49;;;;;;;11.10;5.17;;;;;;;14.79;100.00;100812.44;5157254;27;20445;-72
2023/06/17 02:00:17;;;;;;;9.50;4.40;;;;;;;14.79;100.00;100806.19;5157274;27;20434;-72
2023/06/17 02:02:43;;;;;;;10.40;5.70;;;;;;;14.76;100.00;100804.88;5156805;27;20505;-71
2023/06/17 02:05:10;;;;;;;10.07;4.33;;;;;;;14.79;100.00;100815.16;5157151;27;20512;-71
2023/06/17 02:07:38;;;;;;;12.93;5.57;;;;;;;14.74;100.00;100806.31;5157127;27;20438;-72
2023/06/17 02:10:05;;;;;;;10.20;4.50;;;;;;;14.68;100.00;100811.16;5156729;27;20494;-72
2023/06/17 02:12:33;;;;;;;11.13;4.70;;;;;;;14.70;100.00;100799.91;5156593;27;20437;-72
2023/06/17 02:15:01;;;;;;;11.30;4.93;;;;;;;14.71;100.00;100802.34;5156435;27;20497;-71
2023/06/17 02:17:28;;;;;;;14.40;5.80;;;;;;;14.66;100.00;100796.25;5156895;27;20867;-71
2023/06/17 02:19:55;;;;;;;11.57;4.87;;;;;;;14.70;100.00;100805.34;5156874;27;20442;-71
2023/06/17 02:22:22;;;;;;;12.03;5.60;;;;;;;14.69;100.00;100803.75;5156765;27;20485;-71
2023/06/17 02:24:49;;;;;;;9.60;4.50;;;;;;;14.75;100.00;100797.84;5156681;27;20489;-71
2023/06/17 02:27:17;;;;;;;9.80;4.57;;;;;;;14.79;100.00;100804.25;5156655;27;20429;-71
2023/06/17 02:29:45;;;;;;;8.60;4.17;;;;;;;14.71;100.00;100802.34;5156671;27;20442;-72
2023/06/17 02:32:13;;;;;;;9.17;4.73;;;;;;;14.76;100.00;100802.16;5156629;27;20437;-71
2023/06/17 02:34:42;;;;;;;11.07;4.83;;;;;;;14.72;100.00;100803.94;5156504;27;20500;-71
2023/06/17 02:37:09;;;;;;;10.37;4.40;;;;;;;14.74;100.00;100800.88;5156575;27;20445;-71
2023/06/17 02:39:35;;;;;;;11.07;4.90;;;;;;;14.70;100.00;100806.19;5156383;27;20481;-72
2023/06/17 02:42:02;;;;;;;12.40;5.40;;;;;;;14.68;100.00;100802.97;5156374;27;20473;-71
2023/06/17 02:44:29;;;;;;;10.00;4.50;;;;;;;14.75;100.00;100800.56;5156504;27;20476;-72
2023/06/17 02:46:56;;;;;;;10.30;4.90;;;;;;;14.79;100.00;100798.00;5156235;27;21003;-71
2023/06/17 02:49:24;;;;;;;12.00;4.83;;;;;;;14.76;100.00;100799.44;5155967;27;21000;-71
2023/06/17 02:51:51;;;;;;;9.60;4.33;;;;;;;14.79;100.00;100798.78;5156454;27;20445;-71
2023/06/17 02:54:17;;;;;;;10.47;5.13;;;;;;;14.71;100.00;100805.06;5156137;27;20824;-71
2023/06/17 02:56:44;;;;;;;11.30;5.40;;;;;;;14.66;100.00;100804.44;5156180;27;20434;-71
2023/06/17 02:59:11;;;;;;;9.50;4.63;;;;;;;14.71;100.00;100796.06;5155853;27;20473;-72
2023/06/17 03:01:39;;;;;;;9.63;4.20;;;;;;;14.79;100.00;100803.44;5155715;27;21030;-71
2023/06/17 03:04:05;;;;;;;11.43;5.70;;;;;;;14.75;100.00;100803.28;5156197;27;20465;-71
2023/06/17 03:06:34;;;;;;;14.30;5.43;;;;;;;14.84;100.00;100806.00;5155913;27;20532;-71
2023/06/17 03:09:00;;;;;;;10.07;4.30;;;;;;;14.71;100.00;100799.59;5155852;27;20438;-71
2023/06/17 03:11:28;;;;;;;16.60;5.47;;;;;;;14.72;100.00;100797.69;5155885;27;20490;-71
2023/06/17 03:13:55;;;;;;;9.40;5.00;;;;;;;14.78;100.00;100807.28;5155589;27;20473;-71
2023/06/17 03:16:24;;;;;;;11.43;5.87;;;;;;;14.79;100.00;100798.00;5155793;27;20940;-71
2023/06/17 03:18:51;;;;;;;12.00;6.00;;;;;;;14.84;100.00;100806.81;5155928;27;20448;-71
2023/06/17 03:21:17;;;;;;;14.00;7.23;;;;;;;14.92;100.00;100801.63;5155256;27;20964;-72
2023/06/17 03:23:48;;;;;;;12.67;5.37;;;;;;;14.89;100.00;100798.44;5155577;27;20483;-70
2023/06/17 03:26:15;;;;;;;12.93;6.20;;;;;;;14.92;100.00;100798.91;5155105;27;21014;-72
2023/06/17 03:28:42;;;;;;;15.57;6.50;;;;;;;14.95;100.00;100795.53;5155509;27;20434;-71
2023/06/17 03:31:10;;;;;;;12.23;6.10;;;;;;;14.84;100.00;100798.63;5155244;27;20988;-71
2023/06/17 03:33:37;;;;;;;12.17;5.67;;;;;;;14.86;100.00;100803.72;5155383;27;20445;-71
2023/06/17 03:36:04;;;;;;;13.53;6.77;;;;;;;14.83;100.00;100799.75;5155557;27;20500;-71
2023/06/17 03:38:30;;;;;;;10.43;5.07;;;;;;;14.91;100.00;100800.03;5155310;27;20437;-71
2023/06/17 03:40:58;;;;;;;11.90;5.30;;;;;;;14.91;100.00;100802.75;5155251;27;20445;-71
2023/06/17 03:43:25;;;;;;;10.90;5.00;;;;;;;14.95;100.00;100809.97;5155052;27;20517;-71
2023/06/17 03:45:52;;;;;;;12.00;4.90;;;;;;;14.95;100.00;100801.78;5154804;27;20497;-71
2023/06/17 03:48:18;;;;;;;11.60;6.20;;;;;;;14.96;100.00;100805.31;5155181;27;20461;-71
2023/06/17 03:50:46;;;;;;;12.47;6.27;;;;;;;14.99;100.00;100804.66;5154928;27;20489;-71
2023/06/17 03:53:12;;;;;;;12.27;6.10;;;;;;;14.95;100.00;100811.91;5156693;27;20441;-71
2023/06/17 03:55:39;;;;;;;13.87;6.30;;;;;;;14.98;100.00;100801.16;5154703;27;21063;-72
2023/06/17 03:58:07;;;;;;;11.57;6.23;;;;;;;15.01;100.00;100808.69;5155198;27;20520;-71
2023/06/17 04:00:34;;;;;;;17.47;6.30;;;;;;;15.06;100.00;100813.16;5155108;27;20445;-71
2023/06/17 04:03:00;;;;;;;15.00;7.37;;;;;;;15.05;100.00;100812.38;5154768;27;21082;-71
2023/06/17 04:05:32;;;;;;;13.23;6.00;;;;;;;15.04;100.00;100816.19;5154771;27;20913;-71
2023/06/17 04:07:59;;;;;;;13.33;6.73;;;;;;;15.01;100.00;100816.06;5154904;27;20426;-71
2023/06/17 04:10:26;;;;;;;14.57;6.70;;;;;;;14.93;100.00;100816.91;5155029;27;20449;-71
2023/06/17 04:12:53;;;;;;;11.47;6.00;;;;;;;14.94;100.00;100813.84;5154629;27;20836;-71
2023/06/17 04:15:21;;;;;;;15.13;7.90;;;;;;;14.95;100.00;100820.09;5154706;27;20537;-71
2023/06/17 04:17:48;;;;;;;14.93;6.90;;;;;;;14.95;100.00;100823.59;5154507;27;20928;-71
2023/06/17 04:20:14;;;;;;;16.87;7.40;;;;;;;14.99;100.00;100810.91;5154826;27;20845;-71
2023/06/17 04:22:42;;;;;;;15.33;6.97;;;;;;;15.00;100.00;100819.91;5154708;27;20553;-71
2023/06/17 04:25:12;;;;;;;16.63;7.53;;;;;;;14.97;100.00;100820.56;5154639;27;20483;-71
2023/06/17 04:27:39;;;;;;;14.13;6.90;;;;;;;15.01;100.00;100816.88;5154715;27;20863;-71
2023/06/17 04:30:07;;;;;;;13.30;6.87;;;;;;;15.03;100.00;100819.25;5154647;27;20470;-71
2023/06/17 04:32:38;;;;;;;13.13;6.93;;;;;;;15.03;100.00;100822.00;5154689;27;20796;-71
2023/06/17 04:35:06;;;;;;;13.33;7.20;;;;;;;15.07;100.00;100823.75;5154604;27;20450;-71
2023/06/17 04:37:34;;;;;;;16.00;7.00;;;;;;;15.14;100.00;100829.50;5157784;27;20536;-71
2023/06/17 04:40:00;;;;;;;12.37;6.93;;;;;;;15.24;100.00;100824.81;5158404;27;20536;-73
2023/06/17 04:42:27;;;;;;;18.80;8.20;;;;;;;15.30;100.00;100824.31;5158376;27;20576;-71
2023/06/17 04:44:54;;;;;;;13.23;6.77;;;;;;;15.31;100.00;100825.91;5158356;27;20468;-72
2023/06/17 04:47:20;;;;;;;16.37;7.90;;;;;;;15.35;100.00;100834.25;5158663;27;20490;-71
2023/06/17 04:49:51;;;;;;;14.37;6.90;;;;;;;15.41;100.00;100830.22;5158588;27;20440;-71
2023/06/17 04:52:19;;;;;;;14.30;7.43;;;;;;;15.39;100.00;100830.53;5158580;27;20422;-71
2023/06/17 04:54:46;;;;;;;18.33;8.70;;;;;;;15.43;100.00;100821.69;5158405;27;20458;-71
2023/06/17 04:57:13;;;;;;;17.13;7.20;;;;;;;15.46;100.00;100829.25;5158441;27;20521;-72
2023/06/17 04:59:40;;;;;;;15.03;7.30;;;;;;;15.47;100.00;100828.09;5158387;27;20433;-71
2023/06/17 05:02:06;;;;;;;17.80;9.70;;;;;;;15.53;100.00;100824.06;5158222;27;20444;-71
2023/06/17 05:04:33;;;;;;;20.77;8.67;;;;;;;15.53;100.00;100832.25;5158190;27;20488;-71
2023/06/17 05:07:01;;;;;;;16.07;7.37;;;;;;;15.61;100.00;100831.41;5158347;27;20476;-71
2023/06/17 05:09:27;;;;;;;18.23;8.37;;;;;;;15.68;100.00;100834.47;5158180;27;20434;-71
2023/06/17 05:11:54;;;;;;;15.53;8.07;;;;;;;15.71;100.00;100835.72;5158171;27;20445;-72
2023/06/17 05:14:20;;;;;;;16.13;9.13;;;;;;;15.78;100.00;100838.75;5158102;27;20461;-68
2023/06/17 05:16:47;;;;;;;18.80;8.93;;;;;;;15.80;100.00;100834.53;5157742;27;20524;-68
2023/06/17 05:19:14;;;;;;;14.80;8.00;;;;;;;15.87;100.00;100842.22;5157684;27;20877;-68
2023/06/17 05:21:40;;;;;;;18.67;9.47;;;;;;;15.95;100.00;100837.84;5157920;27;20886;-68
2023/06/17 05:24:08;;;;;;;17.50;8.53;;;;;;;15.99;100.00;100836.06;5157457;27;20477;-68
2023/06/17 05:26:35;;;;;;;21.90;7.47;;;;;;;15.90;100.00;100833.38;5157846;27;20442;-68
2023/06/17 05:29:01;;;;;;;15.50;8.20;;;;;;;15.90;100.00;100838.84;5157551;27;20955;-68
2023/06/17 05:31:28;;;;;;;39.17;8.77;;;;;;;15.89;100.00;100827.13;5157710;27;20448;-68
2023/06/17 05:33:55;;;;;;;16.60;8.23;;;;;;;15.83;100.00;100825.69;5157613;27;20801;-68
2023/06/17 05:36:21;;;;;;;18.67;9.60;;;;;;;15.89;100.00;100838.06;5157669;27;20447;-68
2023/06/17 05:38:48;;;;;;;14.30;8.07;;;;;;;15.97;100.00;100835.56;5157594;27;20486;-69
2023/06/17 05:41:16;;;;;;;14.20;7.23;;;;;;;16.04;100.00;100835.88;5157860;27;20433;-69
2023/06/17 05:43:42;;;;;;;16.03;9.03;;;;;;;16.00;100.00;100835.72;5157184;27;20666;-68
2023/06/17 05:46:09;;;;;;;15.90;7.93;;;;;;;16.04;100.00;100842.13;5157387;27;20502;-68
2023/06/17 05:48:36;;;;;;;14.13;7.90;;;;;;;16.08;100.00;100840.34;5156106;27;20827;-68
2023/06/17 05:51:03;;;;;;;14.93;7.97;;;;;;;16.02;100.00;100849.03;5157846;27;20522;-69
2023/06/17 05:53:29;;;;;;;22.40;9.57;;;;;;;15.97;100.00;100849.25;5157065;27;20440;-68
2023/06/17 05:55:56;;;;;;;21.33;9.97;;;;;;;16.02;100.00;100843.56;5157164;27;20550;-68
2023/06/17 05:58:24;;;;;;;16.30;8.47;;;;;;;16.13;100.00;100842.06;5157217;27;20438;-69
2023/06/17 06:00:50;;;;;;;15.40;8.47;;;;;;;16.24;100.00;100848.72;5157185;27;20465;-68
2023/06/17 06:03:17;;;;;;;17.43;9.30;;;;;;;16.34;100.00;100847.56;5157040;27;20481;-67
2023/06/17 06:05:43;;;;;;;20.57;9.17;;;;;;;16.45;100.00;100853.41;5157218;27;20461;-67
2023/06/17 06:08:10;;;;;;;21.43;9.60;;;;;;;16.56;100.00;100858.16;5157051;27;20441;-68
2023/06/17 06:10:36;;;;;;;15.53;8.33;;;;;;;16.66;100.00;100867.88;5157057;27;20480;-68
2023/06/17 06:13:03;;;;;;;15.40;8.37;;;;;;;16.68;100.00;100857.38;5156658;27;20438;-67
2023/06/17 06:15:32;;;;;;;18.87;9.67;;;;;;;16.75;100.00;100860.41;5156553;27;20489;-68
2023/06/17 06:17:59;;;;;;;19.77;9.60;;;;;;;16.81;100.00;100864.53;5157079;27;20434;-68
2023/06/17 06:20:26;;;;;;;16.17;8.90;;;;;;;16.90;100.00;100862.53;5156804;27;20472;-68
2023/06/17 06:22:52;;;;;;;14.50;7.83;;;;;;;16.98;100.00;100858.09;5156690;27;20484;-68
2023/06/17 06:25:19;;;;;;;19.30;9.10;;;;;;;16.97;100.00;100867.47;5156634;27;20489;-68
2023/06/17 06:27:46;;;;;;;18.80;9.27;;;;;;;16.88;100.00;100869.47;5156363;27;20904;-68
2023/06/17 06:30:13;;;;;;;18.37;10.63;;;;;;;16.96;100.00;100865.88;5156739;27;20442;-68
2023/06/17 06:32:41;;;;;;;13.73;7.67;;;;;;;17.04;100.00;100864.94;5156560;27;20465;-67
2023/06/17 06:35:08;;;;;;;18.60;9.17;;;;;;;17.14;100.00;100866.50;5156571;27;20485;-75
2023/06/17 06:37:35;;;;;;;16.77;9.20;;;;;;;17.17;100.00;100876.75;5157049;27;20533;-68
2023/06/17 06:40:03;;;;;;;18.50;8.80;;;;;;;17.17;100.00;100875.94;5156504;27;20460;-69
2023/06/17 06:42:29;;;;;;;14.80;8.13;;;;;;;17.25;100.00;100873.13;5156196;27;20436;-69
2023/06/17 06:44:56;;;;;;;15.37;7.60;;;;;;;17.35;100.00;100877.34;5156290;27;20462;-68
2023/06/17 06:47:22;;;;;;;17.80;9.43;;;;;;;17.42;100.00;100877.59;5156138;27;20524;-70
2023/06/17 06:49:51;;;;;;;14.10;7.60;;;;;;;17.45;100.00;100876.94;5156234;27;20480;-71
2023/06/17 06:52:17;;;;;;;18.53;9.27;;;;;;;17.49;100.00;100882.53;5155817;27;21012;-72
2023/06/17 06:54:44;;;;;;;15.30;8.50;;;;;;;17.52;100.00;100876.34;5156049;27;20461;-72
2023/06/17 06:57:11;;;;;;;15.20;9.40;;;;;;;17.55;100.00;100881.97;5156316;27;20520;-72
2023/06/17 06:59:37;;;;;;;14.73;7.33;;;;;;;17.49;100.00;100877.06;5155592;27;20503;-73
2023/06/17 07:02:04;;;;;;;16.70;8.87;;;;;;;17.54;100.00;100874.09;5155699;27;20529;-73
2023/06/17 07:04:31;;;;;;;16.90;9.37;;;;;;;17.55;100.00;100881.16;5155763;27;20481;-73
2023/06/17 07:06:59;;;;;;;16.57;7.80;;;;;;;17.57;100.00;100885.16;5156141;27;20479;-73
2023/06/17 07:09:26;;;;;;;18.10;8.67;;;;;;;17.54;100.00;100888.59;5155487;27;20529;-72
2023/06/17 07:11:52;;;;;;;18.33;8.77;;;;;;;17.59;100.00;100882.09;5155471;27;20444;-72
2023/06/17 07:14:19;;;;;;;17.40;7.90;;;;;;;17.71;100.00;100884.00;5155682;27;20496;-73
2023/06/17 07:16:45;;;;;;;17.30;8.27;;;;;;;17.79;100.00;100886.66;5156034;27;20434;-72
2023/06/17 07:19:12;;;;;;;16.63;7.90;;;;;;;17.89;100.00;100880.75;5155665;27;20858;-72
2023/06/17 07:21:39;;;;;;;12.57;7.13;;;;;;;17.95;100.00;100875.03;5155575;27;20438;-72
2023/06/17 07:24:07;;;;;;;20.93;9.97;;;;;;;17.99;100.00;100878.69;5155060;27;20489;-72
2023/06/17 07:26:33;;;;;;;19.80;8.87;;;;;;;18.01;100.00;100881.88;5155514;27;20442;-72
2023/06/17 07:29:01;;;;;;;15.23;7.97;;;;;;;18.13;100.00;100879.13;5155483;27;20437;-72
2023/06/17 07:31:30;;;;;;;17.50;8.90;;;;;;;18.24;100.00;100885.75;5155091;27;20446;-72
2023/06/17 07:33:56;;;;;;;13.03;7.10;;;;;;;18.30;100.00;100878.09;5155292;27;20438;-72
2023/06/17 07:36:23;;;;;;;14.20;7.90;;;;;;;18.26;100.00;100880.72;5155417;27;20529;-72
2023/06/17 07:38:50;;;;;;;15.53;7.87;;;;;;;18.22;100.00;100890.78;5155313;27;20438;-72
2023/06/17 07:41:18;;;;;;;13.50;7.70;;;;;;;18.24;100.00;100876.69;5155543;27;20433;-73
2023/06/17 07:43:45;;;;;;;13.07;7.90;;;;;;;18.37;100.00;100879.09;5154875;27;20503;-72
2023/06/17 07:46:12;;;;;;;15.07;7.33;;;;;;;18.49;100.00;100883.75;5155124;27;20824;-72
2023/06/17 07:48:39;;;;;;;14.63;7.93;;;;;;;18.47;100.00;100877.81;5154902;27;20438;-73
2023/06/17 07:51:06;;;;;;;15.17;8.63;;;;;;;18.49;100.00;100880.19;5155123;27;20438;-72
2023/06/17 07:53:32;;;;;;;13.73;8.40;;;;;;;18.40;100.00;100880.34;5155327;27;20520;-74
2023/06/17 07:55:59;;;;;;;15.77;7.60;;;;;;;18.40;99.62;100885.81;5155264;27;20458;-71
2023/06/17 07:58:27;;;;;;;16.10;7.03;;;;;;;18.53;98.56;100873.66;5154708;27;20932;-72
2023/06/17 08:00:54;;;;;;;12.33;6.37;;;;;;;18.75;99.40;100877.84;5154865;27;20445;-71
2023/06/17 08:03:21;;;;;;;13.53;6.83;;;;;;;18.72;99.76;100873.06;5154590;27;21082;-74
2023/06/17 08:05:47;;;;;;;13.50;7.33;;;;;;;18.76;97.32;100878.66;5154548;27;20923;-70
2023/06/17 08:08:14;;;;;;;14.90;7.03;;;;;;;18.80;96.13;100877.59;5154947;27;20486;-71
2023/06/17 08:10:40;;;;;;;12.90;6.70;;;;;;;18.87;96.98;100877.81;5154297;27;20553;-74
2023/06/17 08:13:07;;;;;;;15.50;8.00;;;;;;;18.83;96.03;100870.63;5154713;27;20533;-70
2023/06/17 08:15:36;;;;;;;11.23;6.13;;;;;;;18.89;96.44;100878.25;5154524;27;20552;-71
2023/06/17 08:18:02;;;;;;;13.07;6.87;;;;;;;19.04;94.40;100878.66;5154873;27;20449;-71
2023/06/17 08:20:29;;;;;;;13.13;6.57;;;;;;;19.08;93.25;100874.84;5154867;27;20525;-72
2023/06/17 08:22:56;;;;;;;11.20;6.47;;;;;;;19.24;94.61;100877.63;5154721;27;20441;-72
2023/06/17 08:25:23;;;;;;;11.00;6.23;;;;;;;19.49;96.64;100877.47;5154555;27;20983;-72
2023/06/17 08:27:50;;;;;;;11.07;5.67;;;;;;;19.67;95.44;100877.94;5154735;27;20533;-72
2023/06/17 08:30:17;;;;;;;13.87;6.33;;;;;;;19.65;90.16;100876.31;5154716;27;20438;-71
2023/06/17 08:32:45;;;;;;;10.97;6.20;;;;;;;19.77;90.47;100885.63;5154454;27;20434;-71
2023/06/17 08:35:12;;;;;;;14.60;6.57;;;;;;;19.67;89.07;100884.22;5154585;27;20485;-71
2023/06/17 08:37:39;;;;;;;20.80;6.77;;;;;;;19.53;89.96;100883.84;5154334;27;20528;-71
2023/06/17 08:40:08;;;;;;;13.80;6.90;;;;;;;19.61;90.74;100880.13;5154896;27;20433;-71
2023/06/17 08:42:35;;;;;;;13.67;7.00;;;;;;;19.82;91.80;100882.63;5154493;27;20490;-71
2023/06/17 08:45:02;;;;;;;12.10;6.67;;;;;;;20.15;93.92;100877.50;5154467;27;20481;-71
2023/06/17 08:47:29;;;;;;;10.23;5.33;;;;;;;20.40;94.34;100882.75;5154275;27;20529;-71
2023/06/17 08:49:58;;;;;;;11.73;6.83;;;;;;;20.47;89.02;100885.66;5154546;27;20440;-71
2023/06/17 08:52:26;;;;;;;11.73;6.70;;;;;;;20.58;88.14;100888.66;5154496;27;20452;-70
2023/06/17 08:54:54;;;;;;;13.70;6.37;;;;;;;20.60;87.13;100891.88;5154483;27;20457;-71
2023/06/17 08:57:21;;;;;;;9.97;4.73;;;;;;;20.74;88.65;100894.09;5154349;27;20438;-71
2023/06/17 08:59:47;;;;;;;15.60;6.23;;;;;;;20.81;88.25;100891.50;5154441;27;20533;-71
2023/06/17 09:02:15;;;;;;;14.03;6.53;;;;;;;20.84;88.13;100890.75;5154604;27;20516;-71
2023/06/17 09:04:42;;;;;;;11.80;5.60;;;;;;;20.85;85.33;100893.19;5154243;27;20481;-71
2023/06/17 09:07:10;;;;;;;10.03;5.57;;;;;;;20.97;86.13;100891.41;5154349;27;20448;-71
2023/06/17 09:09:37;;;;;;;14.73;6.60;;;;;;;21.00;87.12;100897.00;5154348;27;20975;-71
2023/06/17 09:12:05;;;;;;;15.93;6.53;;;;;;;21.01;84.53;100900.53;5154250;27;20954;-71
2023/06/17 09:14:33;;;;;;;13.13;6.17;;;;;;;20.86;82.78;100903.03;5153907;27;20453;-71
2023/06/17 09:17:00;;;;;;;10.43;5.40;;;;;;;20.71;84.15;100909.38;5154272;27;20531;-71
2023/06/17 09:19:29;;;;;;;11.70;6.20;;;;;;;20.79;84.49;100902.06;5153947;27;20944;-71
2023/06/17 09:21:58;;;;;;;13.07;6.87;;;;;;;20.92;84.89;100901.56;5153993;27;20440;-71
2023/06/17 09:24:30;;;;;;;10.67;5.40;;;;;;;20.95;85.06;100897.28;5157491;27;20995;-71
2023/06/17 09:26:57;;;;;;;10.80;5.43;;;;;;;20.62;83.23;100889.53;5158095;27;20791;-71
2023/06/17 09:29:23;;;;;;;10.10;5.03;;;;;;;20.74;83.87;100897.66;5158040;27;20793;-71
2023/06/17 09:31:51;;;;;;;11.10;5.33;;;;;;;20.80;83.33;100901.69;5158048;27;20464;-71
2023/06/17 09:34:18;;;;;;;11.20;5.27;;;;;;;20.94;82.56;100900.38;5157870;27;20449;-71
2023/06/17 09:36:46;;;;;;;12.70;6.10;;;;;;;21.09;81.24;100902.28;5157885;27;20433;-71
2023/06/17 09:39:14;;;;;;;11.90;5.60;;;;;;;21.06;80.69;100908.50;5158018;27;20446;-71
2023/06/17 09:41:43;;;;;;;13.20;6.17;;;;;;;21.02;81.84;100905.69;5157315;27;20808;-71
2023/06/17 09:44:09;;;;;;;9.00;4.57;;;;;;;21.11;82.47;100902.69;5157420;27;20477;-71
2023/06/17 09:46:39;;;;;;;11.83;5.47;;;;;;;21.04;80.50;100905.34;5156498;27;20537;-71
2023/06/17 09:49:11;;;;;;;12.30;6.33;;;;;;;21.09;80.57;100905.03;5157595;27;20433;-71
2023/06/17 09:51:39;;;;;;;13.77;5.60;;;;;;;21.04;80.45;100905.34;5157283;27;20985;-71
2023/06/17 09:54:06;;;;;;;10.00;4.77;;;;;;;20.98;80.81;100899.31;5157587;27;20462;-71
2023/06/17 09:59:07;;;;;;;11.23;5.20;;;;;;;21.27;81.02;100892.38;5100268;22;20868;-66
2023/06/17 10:01:38;;;;;;;9.87;4.73;;;;;;;21.29;80.35;100892.78;5075476;28;20453;-65
2023/06/17 10:04:05;;;;;;;9.50;4.70;;;;;;;21.27;81.28;100891.59;5075310;28;20551;-66
2023/06/17 10:06:34;;;;;;;9.40;4.83;;;;;;;21.28;80.93;100884.91;5075572;28;20445;-66
2023/06/17 10:09:05;;;;;;;11.00;5.30;;;;;;;21.35;81.16;100885.88;5075196;28;20457;-67
2023/06/17 10:11:34;;;;;;;9.20;4.87;;;;;;;21.46;80.46;100882.50;5075004;28;20852;-66
2023/06/17 10:14:07;;;;;;;8.07;3.93;;;;;;;21.61;81.74;100884.34;5075208;28;20503;-66
2023/06/17 10:16:38;;;;;;;11.40;5.70;;;;;;;21.53;76.86;100883.41;5075208;28;20424;-67
2023/06/17 10:19:08;;;;;;;9.60;4.90;;;;;;;21.55;78.35;100877.53;5075780;28;20914;-66
2023/06/17 10:21:38;;;;;;;9.57;4.20;;;;;;;21.46;78.19;100871.47;5075163;28;20959;-67
2023/06/17 10:24:06;;;;;;;9.47;4.50;;;;;;;21.65;76.27;100874.16;5075301;28;20855;-66
2023/06/17 10:26:33;;;;;;;8.03;4.20;;;;;;;21.85;77.80;100872.09;5075064;28;20524;-66
2023/06/17 10:29:02;;;;;;;9.00;4.07;;;;;;;21.91;75.56;100871.44;5074794;28;20467;-66
2023/06/17 10:31:30;;;;;;;8.60;4.50;;;;;;;21.94;73.62;100869.88;5074602;28;20875;-66
2023/06/17 10:34:01;;;;;;;8.17;4.03;;;;;;;22.08;74.10;100877.56;5074212;28;20468;-66
2023/06/17 10:36:28;;;;;;;9.73;3.90;;;;;;;22.12;73.48;100878.44;5074607;28;20422;-67
2023/06/17 10:38:56;;;;;;;9.20;4.70;;;;;;;22.22;75.49;100868.72;5074716;28;20462;-67
2023/06/17 10:41:28;;;;;;;8.27;3.90;;;;;;;22.33;75.93;100875.97;5074645;28;20445;-66
2023/06/17 10:43:55;;;;;;;9.70;5.20;;;;;;;22.18;75.65;100876.97;5074660;28;20479;-67
2023/06/17 10:46:26;;;;;;;9.23;4.73;;;;;;;22.23;75.47;100876.66;5074136;28;20492;-66
2023/06/17 10:48:58;;;;;;;8.83;4.40;;;;;;;22.34;76.21;100868.50;5074344;28;20548;-67
2023/06/17 10:51:26;;;;;;;8.47;4.60;;;;;;;22.45;75.93;100869.44;5074498;28;20524;-66
2023/06/17 10:53:52;;;;;;;9.40;5.53;;;;;;;22.40;76.02;100870.56;5074588;28;20469;-66
2023/06/17 10:56:19;;;;;;;9.40;4.27;;;;;;;22.47;77.03;100869.84;5074250;28;20445;-67
2023/06/17 10:58:47;;;;;;;9.37;4.80;;;;;;;22.41;77.69;100871.34;5074092;28;20473;-66
2023/06/17 11:01:14;;;;;;;8.50;4.53;;;;;;;22.21;78.51;100873.44;5074087;28;20449;-64
2023/06/17 11:03:41;;;;;;;8.87;4.40;;;;;;;22.01;80.02;100871.97;5074097;28;20516;-63
2023/06/17 11:06:09;;;;;;;12.33;5.80;;;;;;;21.70;84.13;100871.09;5073883;28;20576;-65
2023/06/17 11:08:38;;;;;;;12.40;6.10;;;;;;;21.23;88.11;100879.69;5074023;28;20461;-65
2023/06/17 11:11:09;;;;;;;13.63;6.70;;;;;;;20.68;93.64;100899.13;5074186;28;20976;-65
2023/06/17 11:13:37;;;;;;;9.50;4.60;;;;;;;20.08;97.24;100915.06;5074127;28;20944;-65
2023/06/17 11:16:04;;;;;;;9.43;4.37;;;;;;;19.58;100.00;100908.31;5074004;28;20437;-65